createdAt,value
2019-01-10T00:00:48.502Z,100843.65
2019-01-10T00:03:15.852Z,100844.16
2019-01-10T00:05:44.391Z,100847.37
2019-01-10T00:08:12.077Z,100853.42
2019-01-10T00:10:39.524Z,100846.47
2019-01-10T00:13:07.278Z,100853.78
2019-01-10T00:15:35.015Z,100848.34
2019-01-10T00:18:16.452Z,100861.31
2019-01-10T00:20:46.975Z,100863.52
2019-01-10T00:23:15.072Z,100861.33
2019-01-10T00:25:42.464Z,100868.13
2019-01-10T00:28:10.578Z,100864.59
2019-01-10T00:30:38.372Z,100880.10
2019-01-10T00:33:06.079Z,100877.40
2019-01-10T00:35:34.028Z,100880.09
2019-01-10T00:38:01.567Z,100888.66
2019-01-10T00:40:29.208Z,100886.33
2019-01-10T00:42:56.987Z,100886.98
2019-01-10T00:45:24.798Z,100890.01
2019-01-10T00:47:52.748Z,100901.14
2019-01-10T00:50:22.800Z,100904.86
2019-01-10T00:52:51.133Z,100904.23
2019-01-10T00:55:19.243Z,100906.08
2019-01-10T00:57:46.626Z,100914.65
2019-01-10T01:00:21.060Z,100912.97
2019-01-10T01:02:48.578Z,100911.30
2019-01-10T01:05:16.858Z,100914.65
2019-01-10T01:07:44.485Z,100919.26
2019-01-10T01:10:16.876Z,100912.64
2019-01-10T01:12:44.368Z,100909.95
2019-01-10T01:15:13.613Z,100918.70
2019-01-10T01:17:41.426Z,100917.55
2019-01-10T01:20:10.224Z,100926.02
2019-01-10T01:22:37.877Z,100927.00
2019-01-10T01:25:06.910Z,100931.23
2019-01-10T01:27:34.663Z,100934.41
2019-01-10T01:30:02.943Z,100937.62
2019-01-10T01:32:30.116Z,100936.08
2019-01-10T01:34:57.734Z,100936.95
2019-01-10T01:37:25.249Z,100933.75
2019-01-10T01:39:54.021Z,100935.80
2019-01-10T01:42:21.973Z,100939.33
2019-01-10T01:44:49.325Z,100936.81
2019-01-10T01:47:17.357Z,100945.25
2019-01-10T01:49:44.787Z,100944.23
2019-01-10T01:52:12.571Z,100942.37
2019-01-10T01:54:40.928Z,100959.09
2019-01-10T01:57:09.270Z,100960.12
2019-01-10T01:59:36.852Z,100952.20
2019-01-10T02:02:04.324Z,100968.59
2019-01-10T02:04:31.572Z,100976.51
2019-01-10T02:06:59.734Z,100980.38
2019-01-10T02:09:27.879Z,100990.34
2019-01-10T02:11:55.335Z,100985.45
2019-01-10T02:14:23.060Z,100986.80
2019-01-10T02:16:50.846Z,100993.55
2019-01-10T02:19:21.446Z,100995.89
2019-01-10T02:21:49.051Z,100991.65
2019-01-10T02:24:16.332Z,100992.67
2019-01-10T02:26:44.108Z,100986.25
2019-01-10T02:29:11.396Z,100992.86
2019-01-10T02:31:39.505Z,100993.88
2019-01-10T02:34:07.252Z,101003.81
2019-01-10T02:36:35.205Z,101001.47
2019-01-10T02:39:04.301Z,101001.11
2019-01-10T02:41:31.832Z,101005.85
2019-01-10T02:44:26.951Z,101014.66
2019-01-10T02:46:54.523Z,101015.31
2019-01-10T02:49:22.355Z,101011.77
2019-01-10T02:51:49.671Z,101012.28
2019-01-10T02:54:17.149Z,101011.95
2019-01-10T02:56:44.284Z,101018.34
2019-01-10T02:59:11.626Z,101019.69
2019-01-10T03:01:43.021Z,101022.06
2019-01-10T03:04:11.604Z,101022.77
2019-01-10T03:06:39.467Z,101018.05
2019-01-10T03:09:09.000Z,101024.77
2019-01-10T03:11:36.601Z,101024.63
2019-01-10T03:14:04.650Z,101028.31
2019-01-10T03:16:32.115Z,101029.70
2019-01-10T03:18:59.690Z,101021.05
2019-01-10T03:21:27.468Z,101018.20
2019-01-10T03:23:55.051Z,101021.73
2019-01-10T03:26:22.350Z,101017.72
2019-01-10T03:28:50.250Z,101021.92
2019-01-10T03:31:18.175Z,101025.97
2019-01-10T03:33:45.557Z,101025.97
2019-01-10T03:36:13.567Z,101023.59
2019-01-10T03:38:41.330Z,101014.14
2019-01-10T03:41:09.094Z,101015.64
2019-01-10T03:43:46.490Z,101010.97
2019-01-10T03:46:06.183Z,101006.92
2019-01-10T03:48:33.407Z,101017.03
2019-01-10T03:51:01.017Z,101012.28
2019-01-10T03:53:29.595Z,101014.66
2019-01-10T03:55:56.975Z,101016.15
2019-01-10T03:58:24.717Z,101023.78
2019-01-10T04:00:52.106Z,101019.17
2019-01-10T04:03:19.888Z,101017.88
2019-01-10T04:05:49.220Z,101016.52
2019-01-10T04:08:16.836Z,101024.25
2019-01-10T04:10:44.650Z,101011.95
2019-01-10T04:13:12.055Z,101020.71
2019-01-10T04:15:39.170Z,101020.38
2019-01-10T04:18:06.607Z,101020.76
2019-01-10T04:20:34.112Z,101026.95
2019-01-10T04:23:02.242Z,101026.63
2019-01-10T04:25:29.710Z,101025.45
2019-01-10T04:27:58.114Z,101032.21
2019-01-10T04:30:25.731Z,101035.57
2019-01-10T04:32:53.144Z,101036.77
2019-01-10T04:35:21.067Z,101038.09
2019-01-10T04:37:48.657Z,101033.72
2019-01-10T04:40:20.416Z,101041.81
2019-01-10T04:42:47.931Z,101045.39
2019-01-10T04:45:15.875Z,101048.94
2019-01-10T04:47:46.552Z,101052.47
2019-01-10T04:50:14.920Z,101052.80
2019-01-10T04:52:42.475Z,101056.53
2019-01-10T04:55:10.952Z,101059.23
2019-01-10T04:57:38.946Z,101061.75
2019-01-10T05:00:13.297Z,101058.03
2019-01-10T05:02:40.548Z,101067.00
2019-01-10T05:05:08.478Z,101064.63
2019-01-10T05:07:36.227Z,101065.30
2019-01-10T05:10:05.809Z,101067.84
2019-01-10T05:12:33.376Z,101072.41
2019-01-10T05:15:00.933Z,101064.66
2019-01-10T05:17:30.128Z,101066.34
2019-01-10T05:19:57.990Z,101071.39
2019-01-10T05:22:25.214Z,101069.05
2019-01-10T05:24:52.711Z,101072.23
2019-01-10T05:27:20.224Z,101075.11
2019-01-10T05:29:48.033Z,101081.56
2019-01-10T05:32:15.791Z,101079.19
2019-01-10T05:34:43.614Z,101090.84
2019-01-10T05:37:11.245Z,101083.90
2019-01-10T05:39:47.414Z,101084.92
2019-01-10T05:42:08.654Z,101087.77
2019-01-10T05:44:35.877Z,101088.64
2019-01-10T05:47:03.676Z,101085.58
2019-01-10T05:49:31.664Z,101092.00
2019-01-10T05:52:00.323Z,101084.23
2019-01-10T05:54:27.737Z,101094.70
2019-01-10T05:56:55.387Z,101092.16
2019-01-10T05:59:22.708Z,101094.02
2019-01-10T06:01:50.512Z,101095.70
2019-01-10T06:04:18.634Z,101096.90
2019-01-10T06:06:46.978Z,101096.56
2019-01-10T06:09:15.166Z,101099.93
2019-01-10T06:11:43.115Z,101097.41
2019-01-10T06:14:10.621Z,101105.99
2019-01-10T06:16:38.587Z,101115.12
2019-01-10T06:19:06.918Z,101119.70
2019-01-10T06:21:34.811Z,101118.34
2019-01-10T06:24:02.228Z,101123.75
2019-01-10T06:26:29.889Z,101123.58
2019-01-10T06:28:57.395Z,101126.97
2019-01-10T06:31:24.692Z,101129.84
2019-01-10T06:33:54.676Z,101132.03
2019-01-10T06:36:21.959Z,101130.88
2019-01-10T06:38:49.928Z,101131.36
2019-01-10T06:41:17.615Z,101139.80
2019-01-10T06:43:45.327Z,101140.31
2019-01-10T06:46:13.251Z,101144.69
2019-01-10T06:48:41.021Z,101151.44
2019-01-10T06:51:08.850Z,101143.02
2019-01-10T06:53:37.016Z,101149.08
2019-01-10T06:56:05.045Z,101150.60
2019-01-10T06:58:32.990Z,101149.09
2019-01-10T07:01:00.939Z,101155.99
2019-01-10T07:03:28.472Z,101160.72
2019-01-10T07:05:56.529Z,101164.11
2019-01-10T07:08:23.755Z,101161.39
2019-01-10T07:10:51.319Z,101172.05
2019-01-10T07:13:18.821Z,101168.00
2019-01-10T07:15:47.721Z,101169.35
2019-01-10T07:18:15.334Z,101181.84
2019-01-10T07:20:42.782Z,101179.98
2019-01-10T07:23:10.480Z,101177.77
2019-01-10T07:25:38.426Z,101184.02
2019-01-10T07:28:27.192Z,101183.67
2019-01-10T07:30:56.976Z,101188.40
2019-01-10T07:33:24.575Z,101187.91
2019-01-10T07:35:56.862Z,101194.32
2019-01-10T07:38:24.871Z,101201.59
2019-01-10T07:40:52.343Z,101194.98
2019-01-10T07:43:27.503Z,101203.42
2019-01-10T07:45:55.479Z,101202.92
2019-01-10T07:48:23.176Z,101204.77
2019-01-10T07:50:51.370Z,101208.51
2019-01-10T07:53:18.845Z,101208.48
2019-01-10T07:55:46.346Z,101209.34
2019-01-10T07:58:13.704Z,101218.97
2019-01-10T08:00:41.755Z,101220.97
2019-01-10T08:03:09.569Z,101220.32
2019-01-10T08:05:37.126Z,101225.88
2019-01-10T08:08:06.616Z,101227.24
2019-01-10T08:10:34.395Z,101238.36
2019-01-10T08:13:01.902Z,101240.05
2019-01-10T08:15:29.267Z,101242.10
2019-01-10T08:17:57.038Z,101240.58
2019-01-10T08:20:24.911Z,101247.16
2019-01-10T08:22:52.557Z,101249.86
2019-01-10T08:25:20.042Z,101252.73
2019-01-10T08:27:48.595Z,101249.16
2019-01-10T08:30:20.529Z,101251.69
2019-01-10T08:32:48.304Z,101261.31
2019-01-10T08:35:18.920Z,101270.78
2019-01-10T08:37:46.755Z,101264.87
2019-01-10T08:40:16.544Z,101269.44
2019-01-10T08:42:44.412Z,101265.88
2019-01-10T08:45:21.085Z,101265.21
2019-01-10T08:47:41.434Z,101266.73
2019-01-10T08:50:14.039Z,101271.97
2019-01-10T08:52:41.914Z,101274.31
2019-01-10T08:55:09.386Z,101272.97
2019-01-10T08:57:37.173Z,101273.47
2019-01-10T09:00:09.748Z,101274.61
2019-01-10T09:02:37.221Z,101277.50
2019-01-10T09:05:05.311Z,101279.84
2019-01-10T09:07:32.741Z,101284.92
2019-01-10T09:10:00.498Z,101285.61
2019-01-10T09:12:27.895Z,101288.11
2019-01-10T09:14:55.260Z,101283.22
2019-01-10T09:17:23.661Z,101286.91
2019-01-10T09:19:51.100Z,101287.27
2019-01-10T09:22:18.403Z,101281.84
2019-01-10T09:24:45.551Z,101282.13
2019-01-10T09:27:13.031Z,101290.73
2019-01-10T09:29:41.456Z,101292.41
2019-01-10T09:32:08.911Z,101286.81
2019-01-10T09:34:36.185Z,101291.37
2019-01-10T09:37:04.045Z,101298.98
2019-01-10T09:39:31.684Z,101301.66
2019-01-10T09:41:59.023Z,101298.80
2019-01-10T09:44:26.866Z,101299.47
2019-01-10T09:46:54.909Z,101300.97
2019-01-10T09:49:22.825Z,101301.80
2019-01-10T09:51:50.495Z,101303.15
2019-01-10T09:54:18.298Z,101308.05
2019-01-10T09:56:46.141Z,101308.23
2019-01-10T09:59:13.632Z,101310.25
2019-01-10T10:01:41.000Z,101306.52
2019-01-10T10:04:08.252Z,101312.91
2019-01-10T10:06:36.509Z,101314.58
2019-01-10T10:09:06.921Z,101312.86
2019-01-10T10:11:34.527Z,101320.15
2019-01-10T10:14:01.910Z,101310.30
2019-01-10T10:16:29.841Z,101310.99
2019-01-10T10:18:58.165Z,101316.36
2019-01-10T10:21:25.677Z,101317.89
2019-01-10T10:23:54.492Z,101320.98
2019-01-10T10:26:22.933Z,101319.76
2019-01-10T10:28:50.337Z,101317.56
2019-01-10T10:31:18.557Z,101318.02
2019-01-10T10:33:45.945Z,101321.20
2019-01-10T10:36:13.545Z,101326.35
2019-01-10T10:38:41.146Z,101321.19
2019-01-10T10:41:12.897Z,101316.38
2019-01-10T10:43:41.770Z,101317.45
2019-01-10T10:46:11.966Z,101324.50
2019-01-10T10:48:39.346Z,101326.55
2019-01-10T10:51:07.094Z,101316.16
2019-01-10T10:53:37.710Z,101321.92
2019-01-10T10:56:06.147Z,101323.91
2019-01-10T10:58:33.783Z,101323.31
2019-01-10T11:01:01.738Z,101318.37
2019-01-10T11:03:29.494Z,101321.37
2019-01-10T11:05:56.803Z,101319.11
2019-01-10T11:08:24.764Z,101324.02
2019-01-10T11:10:52.230Z,101316.95
2019-01-10T11:13:19.727Z,101321.00
2019-01-10T11:15:47.690Z,101315.45
2019-01-10T11:18:15.289Z,101315.20
2019-01-10T11:20:43.025Z,101314.86
2019-01-10T11:23:11.092Z,101316.88
2019-01-10T11:25:38.513Z,101317.72
2019-01-10T11:28:06.786Z,101309.52
2019-01-10T11:30:34.414Z,101322.43
2019-01-10T11:33:01.923Z,101312.75
2019-01-10T11:35:30.124Z,101317.47
2019-01-10T11:37:57.456Z,101309.31
2019-01-10T11:40:25.349Z,101311.96
2019-01-10T11:42:53.882Z,101317.11
2019-01-10T11:45:24.955Z,101310.05
2019-01-10T11:47:52.668Z,101312.16
2019-01-10T11:50:20.621Z,101306.09
2019-01-10T11:52:47.819Z,101312.14
2019-01-10T11:55:15.836Z,101308.14
2019-01-10T11:57:44.051Z,101309.30
2019-01-10T12:00:37.710Z,101311.83
2019-01-10T12:03:07.379Z,101318.47
2019-01-10T12:05:47.324Z,101315.89
2019-01-10T12:08:08.222Z,101318.28
2019-01-10T12:10:35.623Z,101312.29
2019-01-10T12:13:03.276Z,101310.10
2019-01-10T12:15:31.148Z,101318.27
2019-01-10T12:17:58.739Z,101323.31
2019-01-10T12:20:26.362Z,101316.73
2019-01-10T12:22:53.780Z,101313.33
2019-01-10T12:25:21.516Z,101313.51
2019-01-10T12:27:49.395Z,101313.50
2019-01-10T12:30:23.239Z,101311.50
2019-01-10T12:32:57.667Z,101311.32
2019-01-10T12:35:25.503Z,101308.42
2019-01-10T12:37:53.315Z,101308.88
2019-01-10T12:40:21.211Z,101304.48
2019-01-10T12:42:49.931Z,101309.39
2019-01-10T12:45:18.882Z,101311.58
2019-01-10T12:47:46.432Z,101310.73
2019-01-10T12:50:20.427Z,101301.39
2019-01-10T12:52:48.572Z,101302.17
2019-01-10T12:55:16.917Z,101309.84
2019-01-10T12:57:44.359Z,101308.55
2019-01-10T13:00:15.038Z,101309.66
2019-01-10T13:02:42.641Z,101308.43
2019-01-10T13:05:10.462Z,101301.84
2019-01-10T13:07:37.831Z,101304.23
2019-01-10T13:10:09.024Z,101308.34
2019-01-10T13:12:36.457Z,101314.03
2019-01-10T13:15:06.813Z,101303.40
2019-01-10T13:17:34.816Z,101310.37
2019-01-10T13:20:03.264Z,101319.66
2019-01-10T13:22:30.960Z,101320.16
2019-01-10T13:24:58.457Z,101320.86
2019-01-10T13:27:26.520Z,101320.35
2019-01-10T13:29:53.806Z,101323.25
2019-01-10T13:32:21.697Z,101322.84
2019-01-10T13:34:49.741Z,101328.45
2019-01-10T13:37:17.673Z,101325.37
2019-01-10T13:39:45.073Z,101330.74
2019-01-10T13:42:12.418Z,101322.39
2019-01-10T13:44:40.066Z,101324.72
2019-01-10T13:47:07.734Z,101332.66
2019-01-10T13:49:35.412Z,101328.59
2019-01-10T13:52:02.886Z,101333.26
2019-01-10T13:54:30.510Z,101329.05
2019-01-10T13:56:58.292Z,101333.08
2019-01-10T13:59:25.636Z,101330.22
2019-01-10T14:01:53.395Z,101331.86
2019-01-10T14:04:20.976Z,101340.12
2019-01-10T14:06:48.587Z,101333.59
2019-01-10T14:09:16.064Z,101335.13
2019-01-10T14:11:43.724Z,101337.79
2019-01-10T14:14:11.102Z,101329.16
2019-01-10T14:16:38.590Z,101335.27
2019-01-10T14:19:05.962Z,101338.56
2019-01-10T14:21:33.696Z,101346.31
2019-01-10T14:24:01.338Z,101348.22
2019-01-10T14:26:28.994Z,101350.62
2019-01-10T14:29:00.331Z,101350.08
2019-01-10T14:31:27.776Z,101348.72
2019-01-10T14:33:55.437Z,101359.06
2019-01-10T14:36:22.914Z,101359.88
2019-01-10T14:38:50.393Z,101358.09
2019-01-10T14:41:17.733Z,101363.84
2019-01-10T14:43:45.226Z,101361.65
2019-01-10T14:46:13.197Z,101364.17
2019-01-10T14:48:40.386Z,101367.22
2019-01-10T14:51:07.868Z,101358.43
2019-01-10T14:53:35.210Z,101360.13
2019-01-10T14:56:03.016Z,101360.12
2019-01-10T14:58:30.252Z,101367.23
2019-01-10T15:00:57.883Z,101367.38
2019-01-10T15:03:26.095Z,101368.05
2019-01-10T15:05:53.337Z,101368.09
2019-01-10T15:08:21.102Z,101374.66
2019-01-10T15:10:49.028Z,101367.73
2019-01-10T15:13:16.797Z,101373.16
2019-01-10T15:15:44.626Z,101377.38
2019-01-10T15:18:12.643Z,101388.84
2019-01-10T15:20:40.399Z,101389.00
2019-01-10T15:23:08.327Z,101392.92
2019-01-10T15:25:36.721Z,101396.45
2019-01-10T15:28:04.286Z,101399.33
2019-01-10T15:30:31.860Z,101402.54
2019-01-10T15:32:59.167Z,101406.42
2019-01-10T15:35:27.514Z,101405.07
2019-01-10T15:37:54.986Z,101403.87
2019-01-10T15:40:26.115Z,101414.33
2019-01-10T15:42:53.787Z,101408.27
2019-01-10T15:45:21.236Z,101409.63
2019-01-10T15:47:48.838Z,101404.89
2019-01-10T15:50:17.889Z,101407.41
2019-01-10T15:52:45.974Z,101408.08
2019-01-10T15:55:15.201Z,101415.50
2019-01-10T15:57:42.851Z,101414.69
2019-01-10T16:00:15.176Z,101417.85
2019-01-10T16:02:42.938Z,101418.70
2019-01-10T16:05:10.510Z,101423.44
2019-01-10T16:07:38.398Z,101419.36
2019-01-10T16:10:07.688Z,101413.45
2019-01-10T16:12:35.083Z,101427.63
2019-01-10T16:15:05.022Z,101422.91
2019-01-10T16:17:33.101Z,101427.45
2019-01-10T16:20:01.259Z,101425.93
2019-01-10T16:22:28.729Z,101434.52
2019-01-10T16:24:56.590Z,101439.59
2019-01-10T16:27:24.072Z,101440.30
2019-01-10T16:29:52.034Z,101448.52
2019-01-10T16:32:19.558Z,101444.47
2019-01-10T16:34:47.591Z,101447.66
2019-01-10T16:37:15.327Z,101451.81
2019-01-10T16:39:42.986Z,101445.91
2019-01-10T16:42:10.999Z,101460.93
2019-01-10T16:44:39.147Z,101454.01
2019-01-10T16:47:06.795Z,101459.58
2019-01-10T16:49:34.431Z,101455.19
2019-01-10T16:52:01.919Z,101448.27
2019-01-10T16:54:29.570Z,101450.16
2019-01-10T16:56:57.606Z,101453.03
2019-01-10T16:59:25.812Z,101455.08
2019-01-10T17:01:53.941Z,101450.16
2019-01-10T17:04:23.076Z,101453.98
2019-01-10T17:06:51.492Z,101458.53
2019-01-10T17:09:19.253Z,101451.61
2019-01-10T17:11:46.930Z,101457.92
2019-01-10T17:14:14.683Z,101455.42
2019-01-10T17:16:43.492Z,101458.72
2019-01-10T17:19:11.051Z,101461.55
2019-01-10T17:21:38.158Z,101461.34
2019-01-10T17:24:05.569Z,101450.84
2019-01-10T17:26:33.243Z,101450.20
2019-01-10T17:29:00.496Z,101449.21
2019-01-10T17:31:29.539Z,101451.25
2019-01-10T17:33:57.424Z,101442.98
2019-01-10T17:36:24.675Z,101440.86
2019-01-10T17:38:52.373Z,101444.62
2019-01-10T17:41:20.114Z,101446.81
2019-01-10T17:43:48.249Z,101456.52
2019-01-10T17:46:16.138Z,101463.07
2019-01-10T17:48:44.166Z,101457.23
2019-01-10T17:51:11.751Z,101461.98
2019-01-10T17:53:39.184Z,101462.80
2019-01-10T17:56:06.894Z,101464.61
2019-01-10T17:58:34.215Z,101466.44
2019-01-10T18:01:02.033Z,101467.97
2019-01-10T18:03:29.882Z,101476.85
2019-01-10T18:05:57.318Z,101479.73
2019-01-10T18:08:25.257Z,101483.70
2019-01-10T18:10:53.303Z,101482.25
2019-01-10T18:13:20.766Z,101492.48
2019-01-10T18:15:48.942Z,101490.98
2019-01-10T18:18:16.971Z,101495.41
2019-01-10T18:20:45.071Z,101489.88
2019-01-10T18:23:13.077Z,101480.35
2019-01-10T18:25:40.695Z,101487.73
2019-01-10T18:28:08.686Z,101482.09
2019-01-10T18:30:36.531Z,101485.05
2019-01-10T18:33:04.463Z,101486.36
2019-01-10T18:35:32.864Z,101489.20
2019-01-10T18:38:00.380Z,101487.73
2019-01-10T18:40:27.889Z,101486.11
2019-01-10T18:42:55.785Z,101490.48
2019-01-10T18:45:29.938Z,101491.77
2019-01-10T18:47:58.067Z,101498.70
2019-01-10T18:50:25.788Z,101506.84
2019-01-10T18:52:53.455Z,101503.08
2019-01-10T18:55:21.018Z,101492.56
2019-01-10T18:57:48.838Z,101492.33
2019-01-10T19:00:27.941Z,101489.80
2019-01-10T19:02:57.362Z,101488.16
2019-01-10T19:05:26.142Z,101484.50
2019-01-10T19:07:53.869Z,101484.34
2019-01-10T19:10:21.647Z,101484.42
2019-01-10T19:12:49.950Z,101490.00
2019-01-10T19:15:17.442Z,101483.36
2019-01-10T19:17:45.296Z,101492.14
2019-01-10T19:20:16.642Z,101487.17
2019-01-10T19:22:44.225Z,101493.63
2019-01-10T19:25:12.259Z,101497.92
2019-01-10T19:27:39.848Z,101491.62
2019-01-10T19:30:18.297Z,101492.50
2019-01-10T19:32:46.038Z,101496.88
2019-01-10T19:35:13.546Z,101491.50
2019-01-10T19:37:41.610Z,101497.72
2019-01-10T19:40:13.827Z,101492.84
2019-01-10T19:42:41.430Z,101491.85
2019-01-10T19:45:11.169Z,101484.29
2019-01-10T19:47:38.913Z,101484.44
2019-01-10T19:50:09.758Z,101488.47
2019-01-10T19:52:37.230Z,101489.73
2019-01-10T19:55:06.548Z,101493.19
2019-01-10T19:57:34.436Z,101497.92
2019-01-10T20:00:03.815Z,101487.46
2019-01-10T20:02:31.823Z,101490.64
2019-01-10T20:05:00.221Z,101498.34
2019-01-10T20:07:27.520Z,101502.17
2019-01-10T20:09:55.617Z,101499.34
2019-01-10T20:12:23.220Z,101504.09
2019-01-10T20:14:50.626Z,101506.06
2019-01-10T20:17:17.786Z,101511.98
2019-01-10T20:19:45.323Z,101519.41
2019-01-10T20:22:13.059Z,101516.45
2019-01-10T20:24:40.776Z,101515.45
2019-01-10T20:27:10.287Z,101512.55
2019-01-10T20:29:38.534Z,101512.89
2019-01-10T20:32:06.314Z,101517.38
2019-01-10T20:34:34.401Z,101517.16
2019-01-10T20:37:02.190Z,101520.99
2019-01-10T20:39:30.393Z,101527.97
2019-01-10T20:42:01.867Z,101525.14
2019-01-10T20:44:27.228Z,101523.73
2019-01-10T20:46:54.934Z,101521.63
2019-01-10T20:49:22.676Z,101516.52
2019-01-10T20:51:50.513Z,101523.03
2019-01-10T20:54:18.031Z,101529.05
2019-01-10T20:56:45.458Z,101528.91
2019-01-10T20:59:12.962Z,101530.25
2019-01-10T21:01:42.926Z,101523.38
2019-01-10T21:04:15.489Z,101521.05
2019-01-10T21:06:47.604Z,101525.02
2019-01-10T21:09:21.146Z,101523.81
2019-01-10T21:11:53.100Z,101524.93
2019-01-10T21:14:24.703Z,101531.30
2019-01-10T21:16:59.404Z,101524.87
2019-01-10T21:19:28.467Z,101521.95
2019-01-10T21:21:56.595Z,101523.88
2019-01-10T21:24:28.045Z,101531.94
2019-01-10T21:27:00.599Z,101529.75
2019-01-10T21:29:31.192Z,101537.02
2019-01-10T21:32:01.924Z,101535.47
2019-01-10T21:34:30.775Z,101533.63
2019-01-10T21:37:00.550Z,101530.73
2019-01-10T21:39:27.654Z,101535.34
2019-01-10T21:41:55.379Z,101528.83
2019-01-10T21:44:22.500Z,101527.84
2019-01-10T21:46:49.790Z,101534.05
2019-01-10T21:49:18.019Z,101534.48
2019-01-10T21:51:45.792Z,101535.41
2019-01-10T21:54:13.470Z,101530.66
2019-01-10T21:56:40.881Z,101535.83
2019-01-10T21:59:07.998Z,101526.27
2019-01-10T22:01:35.730Z,101522.24
2019-01-10T22:04:03.920Z,101518.79
2019-01-10T22:06:31.400Z,101523.72
2019-01-10T22:08:59.001Z,101524.02
2019-01-10T22:11:29.528Z,101526.28
2019-01-10T22:13:57.127Z,101515.58
2019-01-10T22:16:26.360Z,101513.81
2019-01-10T22:18:53.901Z,101512.47
2019-01-10T22:21:21.287Z,101510.28
2019-01-10T22:23:49.422Z,101521.04
2019-01-10T22:26:17.358Z,101519.84
2019-01-10T22:28:45.435Z,101517.66
2019-01-10T22:31:13.331Z,101511.20
2019-01-10T22:33:40.894Z,101509.71
2019-01-10T22:36:08.298Z,101520.23
2019-01-10T22:38:36.162Z,101518.63
2019-01-10T22:41:04.405Z,101512.33
2019-01-10T22:43:31.712Z,101506.22
2019-01-10T22:45:58.953Z,101504.80
2019-01-10T22:48:26.245Z,101503.26
2019-01-10T22:50:53.837Z,101509.25
2019-01-10T22:53:22.040Z,101504.72
2019-01-10T22:55:49.333Z,101503.98
2019-01-10T22:58:17.049Z,101513.44
2019-01-10T23:01:44.636Z,101500.84
2019-01-10T23:04:16.039Z,101499.27
2019-01-10T23:06:43.298Z,101498.69
2019-01-10T23:09:10.825Z,101495.42
2019-01-10T23:11:38.529Z,101493.38
2019-01-10T23:14:06.837Z,101493.08
2019-01-10T23:16:35.619Z,101488.85
2019-01-10T23:19:04.923Z,101495.65
2019-01-10T23:21:37.990Z,101490.06
2019-01-10T23:24:11.493Z,101490.72
2019-01-10T23:26:41.476Z,101487.22
2019-01-10T23:29:09.701Z,101489.88
2019-01-10T23:31:37.434Z,101488.38
2019-01-10T23:34:08.586Z,101489.33
2019-01-10T23:36:39.743Z,101487.36
2019-01-10T23:39:21.978Z,101490.05
2019-01-10T23:41:56.299Z,101485.02
2019-01-10T23:44:23.838Z,101486.39
2019-01-10T23:46:51.515Z,101486.27
2019-01-10T23:49:19.738Z,101487.12
2019-01-10T23:51:47.579Z,101495.03
2019-01-10T23:54:15.060Z,101498.48
2019-01-10T23:56:42.463Z,101497.23
2019-01-10T23:59:09.833Z,101503.95
